Terminal Aerodrome Forecast
Issued by NWS Albany, NY

Home | Current Version | Previous Version | Text Only | Print | Product List | Glossary On
Versions: 1 2 3 4 5 6 7 8 9 10 11 12 13 14 15 16
000
FTUS41 KALY 020532
TAFGFL
TAF
KGFL 020532Z 0206/0306 21006KT 6SM BR VCSH SCT008 OVC040
      TEMPO 0206/0208 2SM -SN BR BKN008 OVC015
     FM020800 22005KT P6SM VCSH SCT015 OVC035
      TEMPO 0208/0210 4SM -SHSN OVC015
     FM021500 28012G18KT P6SM BKN040
     FM021800 29015G24KT P6SM BKN050
     FM030100 32008KT P6SM SCT050=

USA.gov is the U.S. government's official web portal to all federal, state and local government web resources and services.